sensor_id;sensor_type;location;lat;lon;timestamp;P1;durP1;ratioP1;P2;durP2;ratioP2
63016;SDS011;50274;45.640;11.756;2022-11-25T00:02:17;26.88;;;16.08;;
63016;SDS011;50274;45.640;11.756;2022-11-25T00:04:44;29.43;;;17.63;;
63016;SDS011;50274;45.640;11.756;2022-11-25T00:07:10;25.27;;;15.43;;
63016;SDS011;50274;45.640;11.756;2022-11-25T00:09:35;26.85;;;16.23;;
63016;SDS011;50274;45.640;11.756;2022-11-25T00:12:01;25.07;;;15.17;;
63016;SDS011;50274;45.640;11.756;2022-11-25T00:14:27;25.42;;;13.20;;
63016;SDS011;50274;45.640;11.756;2022-11-25T00:16:53;25.45;;;15.02;;
63016;SDS011;50274;45.640;11.756;2022-11-25T00:19:19;21.37;;;12.80;;
63016;SDS011;50274;45.640;11.756;2022-11-25T00:21:44;22.38;;;12.65;;
63016;SDS011;50274;45.640;11.756;2022-11-25T00:24:11;26.10;;;13.77;;
63016;SDS011;50274;45.640;11.756;2022-11-25T00:26:39;21.10;;;12.57;;
63016;SDS011;50274;45.640;11.756;2022-11-25T00:29:05;24.27;;;13.70;;
63016;SDS011;50274;45.640;11.756;2022-11-25T00:31:33;23.02;;;12.25;;
63016;SDS011;50274;45.640;11.756;2022-11-25T00:34:01;24.98;;;14.68;;
63016;SDS011;50274;45.640;11.756;2022-11-25T00:36:29;22.47;;;13.77;;
63016;SDS011;50274;45.640;11.756;2022-11-25T00:39:03;21.25;;;13.63;;
63016;SDS011;50274;45.640;11.756;2022-11-25T00:41:31;25.20;;;13.73;;
63016;SDS011;50274;45.640;11.756;2022-11-25T00:44:16;21.33;;;12.27;;
63016;SDS011;50274;45.640;11.756;2022-11-25T00:49:41;22.17;;;12.87;;
63016;SDS011;50274;45.640;11.756;2022-11-25T00:52:12;22.60;;;12.57;;
63016;SDS011;50274;45.640;11.756;2022-11-25T00:54:39;18.65;;;11.52;;
63016;SDS011;50274;45.640;11.756;2022-11-25T00:57:05;21.50;;;12.27;;
63016;SDS011;50274;45.640;11.756;2022-11-25T00:59:31;25.57;;;13.50;;
63016;SDS011;50274;45.640;11.756;2022-11-25T01:01:57;20.15;;;11.55;;
63016;SDS011;50274;45.640;11.756;2022-11-25T01:04:23;20.75;;;12.32;;
63016;SDS011;50274;45.640;11.756;2022-11-25T01:06:49;20.00;;;11.17;;
63016;SDS011;50274;45.640;11.756;2022-11-25T01:09:15;18.70;;;10.75;;
63016;SDS011;50274;45.640;11.756;2022-11-25T01:11:41;20.25;;;10.98;;
63016;SDS011;50274;45.640;11.756;2022-11-25T01:14:07;18.53;;;10.33;;
63016;SDS011;50274;45.640;11.756;2022-11-25T01:16:33;20.48;;;10.52;;
63016;SDS011;50274;45.640;11.756;2022-11-25T01:18:59;18.65;;;10.60;;
63016;SDS011;50274;45.640;11.756;2022-11-25T01:21:26;18.30;;;10.43;;
63016;SDS011;50274;45.640;11.756;2022-11-25T01:23:55;18.60;;;10.17;;
63016;SDS011;50274;45.640;11.756;2022-11-25T01:26:23;19.35;;;9.95;;
63016;SDS011;50274;45.640;11.756;2022-11-25T01:28:53;17.10;;;9.85;;
63016;SDS011;50274;45.640;11.756;2022-11-25T01:31:20;23.48;;;10.70;;
63016;SDS011;50274;45.640;11.756;2022-11-25T01:33:51;20.35;;;11.38;;
63016;SDS011;50274;45.640;11.756;2022-11-25T01:36:22;18.10;;;10.40;;
63016;SDS011;50274;45.640;11.756;2022-11-25T01:38:49;19.83;;;10.73;;
63016;SDS011;50274;45.640;11.756;2022-11-25T01:41:20;21.58;;;11.18;;
63016;SDS011;50274;45.640;11.756;2022-11-25T01:49:30;17.67;;;10.23;;
63016;SDS011;50274;45.640;11.756;2022-11-25T01:52:24;18.50;;;10.27;;
63016;SDS011;50274;45.640;11.756;2022-11-25T01:54:48;18.65;;;10.95;;
63016;SDS011;50274;45.640;11.756;2022-11-25T01:58:03;17.48;;;9.95;;
63016;SDS011;50274;45.640;11.756;2022-11-25T02:00:35;18.63;;;10.38;;
63016;SDS011;50274;45.640;11.756;2022-11-25T02:03:03;17.47;;;9.57;;
63016;SDS011;50274;45.640;11.756;2022-11-25T02:05:45;18.50;;;10.15;;
63016;SDS011;50274;45.640;11.756;2022-11-25T02:08:13;21.13;;;10.70;;
63016;SDS011;50274;45.640;11.756;2022-11-25T02:10:41;16.88;;;10.00;;
63016;SDS011;50274;45.640;11.756;2022-11-25T02:13:09;18.67;;;10.80;;
63016;SDS011;50274;45.640;11.756;2022-11-25T02:15:35;20.50;;;11.50;;
63016;SDS011;50274;45.640;11.756;2022-11-25T02:18:01;19.05;;;10.40;;
63016;SDS011;50274;45.640;11.756;2022-11-25T02:20:28;20.50;;;11.93;;
63016;SDS011;50274;45.640;11.756;2022-11-25T02:22:56;18.38;;;11.55;;
63016;SDS011;50274;45.640;11.756;2022-11-25T02:25:42;19.05;;;11.10;;
63016;SDS011;50274;45.640;11.756;2022-11-25T02:28:15;18.07;;;10.27;;
63016;SDS011;50274;45.640;11.756;2022-11-25T02:30:43;18.27;;;10.32;;
63016;SDS011;50274;45.640;11.756;2022-11-25T02:33:10;19.35;;;10.32;;
63016;SDS011;50274;45.640;11.756;2022-11-25T02:35:47;21.02;;;11.88;;
63016;SDS011;50274;45.640;11.756;2022-11-25T02:38:19;18.58;;;10.60;;
63016;SDS011;50274;45.640;11.756;2022-11-25T02:43:42;19.48;;;12.60;;
63016;SDS011;50274;45.640;11.756;2022-11-25T02:46:09;19.48;;;12.10;;
63016;SDS011;50274;45.640;11.756;2022-11-25T02:48:38;22.00;;;13.43;;
63016;SDS011;50274;45.640;11.756;2022-11-25T02:51:05;23.40;;;12.65;;
63016;SDS011;50274;45.640;11.756;2022-11-25T02:53:33;19.47;;;11.53;;
63016;SDS011;50274;45.640;11.756;2022-11-25T02:55:59;21.42;;;12.93;;
63016;SDS011;50274;45.640;11.756;2022-11-25T02:58:25;18.98;;;11.20;;
63016;SDS011;50274;45.640;11.756;2022-11-25T03:00:51;22.10;;;13.73;;
63016;SDS011;50274;45.640;11.756;2022-11-25T03:03:17;23.48;;;13.98;;
63016;SDS011;50274;45.640;11.756;2022-11-25T03:05:43;29.75;;;16.63;;
63016;SDS011;50274;45.640;11.756;2022-11-25T03:08:09;24.25;;;15.07;;
63016;SDS011;50274;45.640;11.756;2022-11-25T03:10:35;23.50;;;14.30;;
63016;SDS011;50274;45.640;11.756;2022-11-25T03:13:02;25.30;;;15.60;;
63016;SDS011;50274;45.640;11.756;2022-11-25T03:15:29;23.13;;;13.30;;
63016;SDS011;50274;45.640;11.756;2022-11-25T03:17:56;20.52;;;12.63;;
63016;SDS011;50274;45.640;11.756;2022-11-25T03:20:22;23.13;;;12.50;;
63016;SDS011;50274;45.640;11.756;2022-11-25T03:22:49;23.80;;;14.37;;
63016;SDS011;50274;45.640;11.756;2022-11-25T03:25:15;20.23;;;11.48;;
63016;SDS011;50274;45.640;11.756;2022-11-25T03:27:41;23.33;;;12.93;;
63016;SDS011;50274;45.640;11.756;2022-11-25T03:30:11;22.08;;;12.88;;
63016;SDS011;50274;45.640;11.756;2022-11-25T03:32:39;18.08;;;11.48;;
63016;SDS011;50274;45.640;11.756;2022-11-25T03:35:05;18.57;;;11.43;;
63016;SDS011;50274;45.640;11.756;2022-11-25T03:37:32;21.42;;;12.93;;
63016;SDS011;50274;45.640;11.756;2022-11-25T03:39:58;21.40;;;13.23;;
63016;SDS011;50274;45.640;11.756;2022-11-25T03:42:24;18.93;;;11.03;;
63016;SDS011;50274;45.640;11.756;2022-11-25T03:44:49;23.50;;;12.52;;
63016;SDS011;50274;45.640;11.756;2022-11-25T03:47:15;23.33;;;14.43;;
63016;SDS011;50274;45.640;11.756;2022-11-25T03:49:41;21.00;;;11.13;;
63016;SDS011;50274;45.640;11.756;2022-11-25T03:52:07;20.17;;;12.20;;
63016;SDS011;50274;45.640;11.756;2022-11-25T03:54:33;18.80;;;11.50;;
63016;SDS011;50274;45.640;11.756;2022-11-25T03:56:58;20.98;;;11.95;;
63016;SDS011;50274;45.640;11.756;2022-11-25T03:59:24;19.83;;;11.82;;
63016;SDS011;50274;45.640;11.756;2022-11-25T04:01:50;20.47;;;12.67;;
63016;SDS011;50274;45.640;11.756;2022-11-25T04:04:16;18.55;;;11.38;;
63016;SDS011;50274;45.640;11.756;2022-11-25T04:06:42;17.30;;;11.30;;
63016;SDS011;50274;45.640;11.756;2022-11-25T04:09:08;17.40;;;10.83;;
63016;SDS011;50274;45.640;11.756;2022-11-25T04:11:36;19.70;;;11.18;;
63016;SDS011;50274;45.640;11.756;2022-11-25T04:14:21;16.10;;;9.88;;
63016;SDS011;50274;45.640;11.756;2022-11-25T04:16:49;17.92;;;9.95;;
63016;SDS011;50274;45.640;11.756;2022-11-25T04:19:15;16.02;;;9.43;;
63016;SDS011;50274;45.640;11.756;2022-11-25T04:21:41;16.47;;;9.90;;
63016;SDS011;50274;45.640;11.756;2022-11-25T04:24:07;17.25;;;9.75;;
63016;SDS011;50274;45.640;11.756;2022-11-25T04:26:33;16.83;;;9.93;;
63016;SDS011;50274;45.640;11.756;2022-11-25T04:28:59;19.37;;;10.53;;
63016;SDS011;50274;45.640;11.756;2022-11-25T04:31:25;17.85;;;9.88;;
63016;SDS011;50274;45.640;11.756;2022-11-25T04:33:50;15.43;;;8.90;;
63016;SDS011;50274;45.640;11.756;2022-11-25T04:36:16;20.30;;;10.70;;
63016;SDS011;50274;45.640;11.756;2022-11-25T04:38:42;19.80;;;11.85;;
63016;SDS011;50274;45.640;11.756;2022-11-25T04:41:08;17.08;;;10.02;;
63016;SDS011;50274;45.640;11.756;2022-11-25T04:43:34;15.30;;;9.27;;
63016;SDS011;50274;45.640;11.756;2022-11-25T04:46:00;17.15;;;9.98;;
63016;SDS011;50274;45.640;11.756;2022-11-25T04:48:27;15.48;;;9.38;;
63016;SDS011;50274;45.640;11.756;2022-11-25T04:50:53;16.67;;;8.97;;
63016;SDS011;50274;45.640;11.756;2022-11-25T04:53:19;14.98;;;8.27;;
63016;SDS011;50274;45.640;11.756;2022-11-25T04:55:45;13.40;;;8.70;;
63016;SDS011;50274;45.640;11.756;2022-11-25T04:58:11;16.15;;;9.30;;
63016;SDS011;50274;45.640;11.756;2022-11-25T05:00:37;15.20;;;8.68;;
63016;SDS011;50274;45.640;11.756;2022-11-25T05:03:03;13.13;;;7.87;;
63016;SDS011;50274;45.640;11.756;2022-11-25T05:05:30;15.13;;;8.57;;
63016;SDS011;50274;45.640;11.756;2022-11-25T05:07:59;13.70;;;7.75;;
63016;SDS011;50274;45.640;11.756;2022-11-25T05:10:34;13.80;;;7.55;;
63016;SDS011;50274;45.640;11.756;2022-11-25T05:13:14;14.90;;;8.27;;
63016;SDS011;50274;45.640;11.756;2022-11-25T05:15:57;13.18;;;7.65;;
63016;SDS011;50274;45.640;11.756;2022-11-25T05:18:24;14.18;;;7.43;;
63016;SDS011;50274;45.640;11.756;2022-11-25T05:20:50;16.50;;;8.02;;
63016;SDS011;50274;45.640;11.756;2022-11-25T05:23:17;13.07;;;7.45;;
63016;SDS011;50274;45.640;11.756;2022-11-25T05:25:43;13.27;;;8.00;;
63016;SDS011;50274;45.640;11.756;2022-11-25T05:28:09;14.13;;;8.05;;
63016;SDS011;50274;45.640;11.756;2022-11-25T05:30:36;12.85;;;7.07;;
63016;SDS011;50274;45.640;11.756;2022-11-25T05:33:02;13.20;;;6.60;;
63016;SDS011;50274;45.640;11.756;2022-11-25T05:35:28;12.90;;;7.00;;
63016;SDS011;50274;45.640;11.756;2022-11-25T05:37:56;15.27;;;7.35;;
63016;SDS011;50274;45.640;11.756;2022-11-25T05:40:25;14.55;;;8.07;;
63016;SDS011;50274;45.640;11.756;2022-11-25T05:42:50;15.50;;;9.13;;
63016;SDS011;50274;45.640;11.756;2022-11-25T05:45:16;14.97;;;7.97;;
63016;SDS011;50274;45.640;11.756;2022-11-25T05:47:42;14.73;;;7.10;;
63016;SDS011;50274;45.640;11.756;2022-11-25T05:50:09;12.57;;;6.60;;
63016;SDS011;50274;45.640;11.756;2022-11-25T05:52:35;12.95;;;6.25;;
63016;SDS011;50274;45.640;11.756;2022-11-25T05:55:00;12.70;;;6.80;;
63016;SDS011;50274;45.640;11.756;2022-11-25T05:57:26;13.25;;;6.90;;
63016;SDS011;50274;45.640;11.756;2022-11-25T05:59:53;10.48;;;5.43;;
63016;SDS011;50274;45.640;11.756;2022-11-25T06:02:18;15.33;;;7.63;;
63016;SDS011;50274;45.640;11.756;2022-11-25T06:04:44;11.10;;;6.30;;
63016;SDS011;50274;45.640;11.756;2022-11-25T06:07:10;11.67;;;6.57;;
63016;SDS011;50274;45.640;11.756;2022-11-25T06:09:36;13.18;;;6.47;;
63016;SDS011;50274;45.640;11.756;2022-11-25T06:12:02;10.43;;;5.78;;
63016;SDS011;50274;45.640;11.756;2022-11-25T06:14:28;9.63;;;5.07;;
63016;SDS011;50274;45.640;11.756;2022-11-25T06:16:54;12.38;;;7.55;;
63016;SDS011;50274;45.640;11.756;2022-11-25T06:19:20;10.48;;;6.00;;
63016;SDS011;50274;45.640;11.756;2022-11-25T06:21:46;10.87;;;5.73;;
63016;SDS011;50274;45.640;11.756;2022-11-25T06:24:12;11.27;;;6.13;;
63016;SDS011;50274;45.640;11.756;2022-11-25T06:26:38;11.57;;;6.00;;
63016;SDS011;50274;45.640;11.756;2022-11-25T06:29:04;10.73;;;5.40;;
63016;SDS011;50274;45.640;11.756;2022-11-25T06:31:30;11.40;;;5.65;;
63016;SDS011;50274;45.640;11.756;2022-11-25T06:33:55;12.20;;;5.80;;
63016;SDS011;50274;45.640;11.756;2022-11-25T06:36:21;11.13;;;5.78;;
63016;SDS011;50274;45.640;11.756;2022-11-25T06:38:48;10.23;;;5.38;;
63016;SDS011;50274;45.640;11.756;2022-11-25T06:41:16;10.55;;;6.25;;
63016;SDS011;50274;45.640;11.756;2022-11-25T06:43:42;12.67;;;6.17;;
63016;SDS011;50274;45.640;11.756;2022-11-25T06:46:09;10.90;;;5.28;;
63016;SDS011;50274;45.640;11.756;2022-11-25T06:48:37;12.52;;;6.45;;
63016;SDS011;50274;45.640;11.756;2022-11-25T06:51:04;12.23;;;7.15;;
63016;SDS011;50274;45.640;11.756;2022-11-25T06:53:40;11.53;;;6.70;;
63016;SDS011;50274;45.640;11.756;2022-11-25T06:58:38;13.00;;;6.80;;
63016;SDS011;50274;45.640;11.756;2022-11-25T07:01:06;10.80;;;6.40;;
63016;SDS011;50274;45.640;11.756;2022-11-25T07:03:38;11.02;;;5.78;;
63016;SDS011;50274;45.640;11.756;2022-11-25T07:06:04;10.90;;;5.93;;
63016;SDS011;50274;45.640;11.756;2022-11-25T07:08:30;12.73;;;6.70;;
63016;SDS011;50274;45.640;11.756;2022-11-25T07:11:06;13.73;;;7.13;;
63016;SDS011;50274;45.640;11.756;2022-11-25T07:13:34;11.35;;;6.20;;
63016;SDS011;50274;45.640;11.756;2022-11-25T07:16:01;10.37;;;5.53;;
63016;SDS011;50274;45.640;11.756;2022-11-25T07:18:32;15.18;;;8.35;;
63016;SDS011;50274;45.640;11.756;2022-11-25T07:21:02;11.27;;;6.60;;
63016;SDS011;50274;45.640;11.756;2022-11-25T07:23:34;11.50;;;6.28;;
63016;SDS011;50274;45.640;11.756;2022-11-25T07:26:05;13.80;;;7.13;;
63016;SDS011;50274;45.640;11.756;2022-11-25T07:28:32;15.63;;;8.17;;
63016;SDS011;50274;45.640;11.756;2022-11-25T07:33:34;13.90;;;7.30;;
63016;SDS011;50274;45.640;11.756;2022-11-25T07:36:03;12.77;;;7.40;;
63016;SDS011;50274;45.640;11.756;2022-11-25T07:38:31;13.18;;;7.20;;
63016;SDS011;50274;45.640;11.756;2022-11-25T07:43:43;25.15;;;11.27;;
63016;SDS011;50274;45.640;11.756;2022-11-25T07:46:17;12.85;;;7.38;;
63016;SDS011;50274;45.640;11.756;2022-11-25T07:48:44;14.00;;;7.00;;
63016;SDS011;50274;45.640;11.756;2022-11-25T07:51:19;14.52;;;7.63;;
63016;SDS011;50274;45.640;11.756;2022-11-25T07:53:46;14.03;;;7.60;;
63016;SDS011;50274;45.640;11.756;2022-11-25T07:56:13;12.55;;;6.55;;
63016;SDS011;50274;45.640;11.756;2022-11-25T07:58:40;12.02;;;6.03;;
63016;SDS011;50274;45.640;11.756;2022-11-25T08:01:06;12.30;;;6.63;;
63016;SDS011;50274;45.640;11.756;2022-11-25T08:03:35;11.90;;;6.20;;
63016;SDS011;50274;45.640;11.756;2022-11-25T08:06:04;10.90;;;6.20;;
63016;SDS011;50274;45.640;11.756;2022-11-25T08:08:34;14.00;;;7.30;;
63016;SDS011;50274;45.640;11.756;2022-11-25T08:11:07;12.88;;;7.22;;
63016;SDS011;50274;45.640;11.756;2022-11-25T08:13:34;14.18;;;7.45;;
63016;SDS011;50274;45.640;11.756;2022-11-25T08:16:00;12.80;;;7.32;;
63016;SDS011;50274;45.640;11.756;2022-11-25T08:18:27;13.07;;;7.27;;
63016;SDS011;50274;45.640;11.756;2022-11-25T08:20:57;14.10;;;7.78;;
63016;SDS011;50274;45.640;11.756;2022-11-25T08:23:28;13.45;;;6.78;;
63016;SDS011;50274;45.640;11.756;2022-11-25T08:25:55;10.38;;;5.40;;
63016;SDS011;50274;45.640;11.756;2022-11-25T08:28:23;13.50;;;6.53;;
63016;SDS011;50274;45.640;11.756;2022-11-25T08:30:49;12.00;;;6.25;;
63016;SDS011;50274;45.640;11.756;2022-11-25T08:33:15;12.50;;;6.30;;
63016;SDS011;50274;45.640;11.756;2022-11-25T08:35:41;14.45;;;7.07;;
63016;SDS011;50274;45.640;11.756;2022-11-25T08:38:09;11.10;;;6.25;;
63016;SDS011;50274;45.640;11.756;2022-11-25T08:40:36;12.87;;;7.00;;
63016;SDS011;50274;45.640;11.756;2022-11-25T08:43:02;11.05;;;6.35;;
63016;SDS011;50274;45.640;11.756;2022-11-25T08:45:29;13.05;;;6.97;;
63016;SDS011;50274;45.640;11.756;2022-11-25T08:47:55;11.57;;;5.72;;
63016;SDS011;50274;45.640;11.756;2022-11-25T08:50:21;11.57;;;6.65;;
63016;SDS011;50274;45.640;11.756;2022-11-25T08:52:50;10.73;;;5.93;;
63016;SDS011;50274;45.640;11.756;2022-11-25T08:55:16;10.73;;;5.95;;
63016;SDS011;50274;45.640;11.756;2022-11-25T08:57:42;9.90;;;5.30;;
63016;SDS011;50274;45.640;11.756;2022-11-25T09:00:09;10.13;;;4.93;;
63016;SDS011;50274;45.640;11.756;2022-11-25T09:02:35;9.40;;;4.53;;
63016;SDS011;50274;45.640;11.756;2022-11-25T09:05:01;9.15;;;4.43;;
63016;SDS011;50274;45.640;11.756;2022-11-25T09:07:27;7.65;;;3.97;;
63016;SDS011;50274;45.640;11.756;2022-11-25T09:09:53;9.83;;;4.13;;
63016;SDS011;50274;45.640;11.756;2022-11-25T09:12:19;7.47;;;4.03;;
63016;SDS011;50274;45.640;11.756;2022-11-25T09:14:45;8.70;;;3.92;;
63016;SDS011;50274;45.640;11.756;2022-11-25T09:17:11;12.27;;;4.75;;
63016;SDS011;50274;45.640;11.756;2022-11-25T09:19:37;9.57;;;4.60;;
63016;SDS011;50274;45.640;11.756;2022-11-25T09:22:03;8.60;;;4.32;;
63016;SDS011;50274;45.640;11.756;2022-11-25T09:24:29;8.60;;;4.07;;
63016;SDS011;50274;45.640;11.756;2022-11-25T09:26:55;9.07;;;4.20;;
63016;SDS011;50274;45.640;11.756;2022-11-25T09:29:21;9.82;;;3.70;;
63016;SDS011;50274;45.640;11.756;2022-11-25T09:31:47;9.50;;;3.97;;
63016;SDS011;50274;45.640;11.756;2022-11-25T09:34:13;8.20;;;3.92;;
63016;SDS011;50274;45.640;11.756;2022-11-25T09:36:39;8.00;;;3.90;;
63016;SDS011;50274;45.640;11.756;2022-11-25T09:39:05;7.18;;;3.17;;
63016;SDS011;50274;45.640;11.756;2022-11-25T09:53:51;7.43;;;3.40;;
63016;SDS011;50274;45.640;11.756;2022-11-25T10:04:55;6.80;;;3.00;;
63016;SDS011;50274;45.640;11.756;2022-11-25T10:07:33;7.20;;;3.30;;
63016;SDS011;50274;45.640;11.756;2022-11-25T10:10:04;7.47;;;3.00;;
63016;SDS011;50274;45.640;11.756;2022-11-25T10:12:37;7.57;;;3.33;;
63016;SDS011;50274;45.640;11.756;2022-11-25T10:15:26;7.70;;;3.25;;
63016;SDS011;50274;45.640;11.756;2022-11-25T10:18:05;7.90;;;3.03;;
63016;SDS011;50274;45.640;11.756;2022-11-25T10:20:53;6.50;;;2.88;;
63016;SDS011;50274;45.640;11.756;2022-11-25T10:23:26;8.57;;;3.37;;
63016;SDS011;50274;45.640;11.756;2022-11-25T10:26:02;5.43;;;2.58;;
63016;SDS011;50274;45.640;11.756;2022-11-25T10:28:37;7.20;;;3.05;;
63016;SDS011;50274;45.640;11.756;2022-11-25T10:31:18;8.35;;;3.53;;
63016;SDS011;50274;45.640;11.756;2022-11-25T10:33:50;7.85;;;3.30;;
63016;SDS011;50274;45.640;11.756;2022-11-25T10:36:19;8.60;;;4.00;;
63016;SDS011;50274;45.640;11.756;2022-11-25T10:38:55;8.95;;;4.13;;
63016;SDS011;50274;45.640;11.756;2022-11-25T10:41:31;7.80;;;4.00;;
63016;SDS011;50274;45.640;11.756;2022-11-25T10:44:27;7.88;;;3.63;;
63016;SDS011;50274;45.640;11.756;2022-11-25T10:47:00;6.95;;;4.10;;
63016;SDS011;50274;45.640;11.756;2022-11-25T10:49:50;8.53;;;3.97;;
63016;SDS011;50274;45.640;11.756;2022-11-25T10:52:45;7.38;;;3.85;;
63016;SDS011;50274;45.640;11.756;2022-11-25T10:55:30;8.68;;;4.50;;
63016;SDS011;50274;45.640;11.756;2022-11-25T10:57:58;9.25;;;4.57;;
63016;SDS011;50274;45.640;11.756;2022-11-25T11:00:44;8.45;;;4.15;;
63016;SDS011;50274;45.640;11.756;2022-11-25T11:03:23;8.97;;;3.87;;
63016;SDS011;50274;45.640;11.756;2022-11-25T11:05:51;9.07;;;3.53;;
63016;SDS011;50274;45.640;11.756;2022-11-25T11:08:21;8.00;;;4.05;;
63016;SDS011;50274;45.640;11.756;2022-11-25T11:13:44;7.80;;;4.05;;
63016;SDS011;50274;45.640;11.756;2022-11-25T11:16:33;7.47;;;3.50;;
63016;SDS011;50274;45.640;11.756;2022-11-25T11:19:04;6.00;;;3.10;;
63016;SDS011;50274;45.640;11.756;2022-11-25T11:21:36;7.63;;;3.60;;
63016;SDS011;50274;45.640;11.756;2022-11-25T11:24:27;9.23;;;4.20;;
63016;SDS011;50274;45.640;11.756;2022-11-25T11:29:57;7.30;;;3.77;;
63016;SDS011;50274;45.640;11.756;2022-11-25T11:32:36;8.40;;;4.85;;
63016;SDS011;50274;45.640;11.756;2022-11-25T11:36:07;10.27;;;5.35;;
63016;SDS011;50274;45.640;11.756;2022-11-25T11:38:03;8.38;;;4.60;;
63016;SDS011;50274;45.640;11.756;2022-11-25T11:40:41;9.35;;;5.00;;
63016;SDS011;50274;45.640;11.756;2022-11-25T11:43:24;8.13;;;4.20;;
63016;SDS011;50274;45.640;11.756;2022-11-25T11:48:54;8.52;;;4.55;;
63016;SDS011;50274;45.640;11.756;2022-11-25T11:51:50;8.75;;;4.80;;
63016;SDS011;50274;45.640;11.756;2022-11-25T11:54:30;7.70;;;4.53;;
63016;SDS011;50274;45.640;11.756;2022-11-25T11:57:04;7.27;;;4.40;;
63016;SDS011;50274;45.640;11.756;2022-11-25T11:59:55;7.95;;;4.22;;
63016;SDS011;50274;45.640;11.756;2022-11-25T12:02:36;9.85;;;5.13;;
63016;SDS011;50274;45.640;11.756;2022-11-25T12:10:30;7.70;;;4.55;;
63016;SDS011;50274;45.640;11.756;2022-11-25T12:15:53;8.35;;;4.70;;
63016;SDS011;50274;45.640;11.756;2022-11-25T12:27:26;7.32;;;4.03;;
63016;SDS011;50274;45.640;11.756;2022-11-25T12:32:46;7.32;;;3.70;;
63016;SDS011;50274;45.640;11.756;2022-11-25T12:38:44;9.52;;;4.90;;
63016;SDS011;50274;45.640;11.756;2022-11-25T12:41:06;8.02;;;4.85;;
63016;SDS011;50274;45.640;11.756;2022-11-25T12:43:48;8.98;;;5.15;;
63016;SDS011;50274;45.640;11.756;2022-11-25T12:46:46;9.05;;;4.90;;
63016;SDS011;50274;45.640;11.756;2022-11-25T12:49:16;7.87;;;4.30;;
63016;SDS011;50274;45.640;11.756;2022-11-25T13:00:20;11.02;;;6.30;;
63016;SDS011;50274;45.640;11.756;2022-11-25T13:12:15;11.90;;;5.95;;
63016;SDS011;50274;45.640;11.756;2022-11-25T13:17:44;11.23;;;6.37;;
63016;SDS011;50274;45.640;11.756;2022-11-25T13:25:38;12.38;;;5.32;;
63016;SDS011;50274;45.640;11.756;2022-11-25T13:30:52;8.47;;;5.47;;
63016;SDS011;50274;45.640;11.756;2022-11-25T13:35:51;9.73;;;5.28;;
63016;SDS011;50274;45.640;11.756;2022-11-25T13:43:26;7.50;;;4.27;;
63016;SDS011;50274;45.640;11.756;2022-11-25T13:45:52;9.15;;;5.22;;
63016;SDS011;50274;45.640;11.756;2022-11-25T13:48:23;8.27;;;4.82;;
63016;SDS011;50274;45.640;11.756;2022-11-25T13:51:11;8.48;;;5.05;;
63016;SDS011;50274;45.640;11.756;2022-11-25T13:53:48;10.35;;;4.72;;
63016;SDS011;50274;45.640;11.756;2022-11-25T14:01:32;10.07;;;5.50;;
63016;SDS011;50274;45.640;11.756;2022-11-25T14:03:58;8.33;;;5.70;;
63016;SDS011;50274;45.640;11.756;2022-11-25T14:06:40;8.68;;;5.57;;
63016;SDS011;50274;45.640;11.756;2022-11-25T14:27:45;9.10;;;5.10;;
63016;SDS011;50274;45.640;11.756;2022-11-25T14:30:12;7.68;;;4.55;;
63016;SDS011;50274;45.640;11.756;2022-11-25T14:35:28;7.78;;;4.38;;
63016;SDS011;50274;45.640;11.756;2022-11-25T14:40:44;7.73;;;4.30;;
63016;SDS011;50274;45.640;11.756;2022-11-25T14:43:27;8.65;;;4.47;;
63016;SDS011;50274;45.640;11.756;2022-11-25T14:48:59;7.72;;;4.50;;
63016;SDS011;50274;45.640;11.756;2022-11-25T14:51:27;8.65;;;4.50;;
63016;SDS011;50274;45.640;11.756;2022-11-25T14:53:59;8.33;;;4.57;;
63016;SDS011;50274;45.640;11.756;2022-11-25T14:56:26;8.95;;;4.72;;
63016;SDS011;50274;45.640;11.756;2022-11-25T14:58:54;9.65;;;5.25;;
63016;SDS011;50274;45.640;11.756;2022-11-25T15:01:23;7.40;;;4.45;;
63016;SDS011;50274;45.640;11.756;2022-11-25T15:04:03;9.18;;;5.03;;
63016;SDS011;50274;45.640;11.756;2022-11-25T15:06:37;10.13;;;4.77;;
63016;SDS011;50274;45.640;11.756;2022-11-25T15:12:00;8.50;;;4.07;;
63016;SDS011;50274;45.640;11.756;2022-11-25T15:16:58;8.52;;;4.25;;
63016;SDS011;50274;45.640;11.756;2022-11-25T15:19:31;7.07;;;4.23;;
63016;SDS011;50274;45.640;11.756;2022-11-25T15:22:00;7.50;;;4.43;;
63016;SDS011;50274;45.640;11.756;2022-11-25T15:24:29;7.97;;;4.50;;
63016;SDS011;50274;45.640;11.756;2022-11-25T15:26:59;7.55;;;4.63;;
63016;SDS011;50274;45.640;11.756;2022-11-25T15:29:29;10.27;;;5.43;;
63016;SDS011;50274;45.640;11.756;2022-11-25T15:31:55;9.10;;;5.47;;
63016;SDS011;50274;45.640;11.756;2022-11-25T15:34:23;9.65;;;5.78;;
63016;SDS011;50274;45.640;11.756;2022-11-25T15:36:52;9.05;;;5.65;;
63016;SDS011;50274;45.640;11.756;2022-11-25T15:44:29;8.88;;;5.18;;
63016;SDS011;50274;45.640;11.756;2022-11-25T15:49:31;9.97;;;5.07;;
63016;SDS011;50274;45.640;11.756;2022-11-25T15:54:42;13.75;;;6.20;;
63016;SDS011;50274;45.640;11.756;2022-11-25T15:57:20;10.50;;;6.82;;
63016;SDS011;50274;45.640;11.756;2022-11-25T16:00:03;15.70;;;7.68;;
63016;SDS011;50274;45.640;11.756;2022-11-25T16:10:21;16.35;;;8.63;;
63016;SDS011;50274;45.640;11.756;2022-11-25T16:21:39;16.77;;;8.25;;
63016;SDS011;50274;45.640;11.756;2022-11-25T16:29:32;14.50;;;8.07;;
63016;SDS011;50274;45.640;11.756;2022-11-25T16:32:14;12.95;;;7.30;;
63016;SDS011;50274;45.640;11.756;2022-11-25T16:34:42;13.60;;;7.78;;
63016;SDS011;50274;45.640;11.756;2022-11-25T16:37:08;12.77;;;7.63;;
63016;SDS011;50274;45.640;11.756;2022-11-25T16:39:35;10.53;;;6.13;;
63016;SDS011;50274;45.640;11.756;2022-11-25T16:42:02;13.52;;;7.45;;
63016;SDS011;50274;45.640;11.756;2022-11-25T16:44:29;13.63;;;7.88;;
63016;SDS011;50274;45.640;11.756;2022-11-25T16:46:57;12.52;;;7.60;;
63016;SDS011;50274;45.640;11.756;2022-11-25T16:49:24;14.00;;;8.57;;
63016;SDS011;50274;45.640;11.756;2022-11-25T16:51:50;14.93;;;8.73;;
63016;SDS011;50274;45.640;11.756;2022-11-25T16:54:18;14.95;;;9.40;;
63016;SDS011;50274;45.640;11.756;2022-11-25T16:56:45;19.00;;;9.98;;
63016;SDS011;50274;45.640;11.756;2022-11-25T16:59:16;15.80;;;9.82;;
63016;SDS011;50274;45.640;11.756;2022-11-25T17:01:49;18.85;;;10.18;;
63016;SDS011;50274;45.640;11.756;2022-11-25T17:04:16;14.30;;;9.17;;
63016;SDS011;50274;45.640;11.756;2022-11-25T17:06:42;14.60;;;9.43;;
63016;SDS011;50274;45.640;11.756;2022-11-25T17:09:09;15.32;;;9.57;;
63016;SDS011;50274;45.640;11.756;2022-11-25T17:11:40;13.48;;;9.60;;
63016;SDS011;50274;45.640;11.756;2022-11-25T17:14:21;14.57;;;9.65;;
63016;SDS011;50274;45.640;11.756;2022-11-25T17:16:51;14.73;;;9.23;;
63016;SDS011;50274;45.640;11.756;2022-11-25T17:19:18;18.52;;;10.00;;
63016;SDS011;50274;45.640;11.756;2022-11-25T17:21:44;14.50;;;9.15;;
63016;SDS011;50274;45.640;11.756;2022-11-25T17:24:11;16.27;;;9.77;;
63016;SDS011;50274;45.640;11.756;2022-11-25T17:26:41;16.58;;;10.43;;
63016;SDS011;50274;45.640;11.756;2022-11-25T17:29:13;15.50;;;10.20;;
63016;SDS011;50274;45.640;11.756;2022-11-25T17:31:41;18.50;;;11.07;;
63016;SDS011;50274;45.640;11.756;2022-11-25T17:34:12;18.63;;;10.40;;
63016;SDS011;50274;45.640;11.756;2022-11-25T17:36:40;14.57;;;8.87;;